Time;durP1;ratioP1;P1;durP2;ratioP2;P2;SDS_P1;SDS_P2;PMS_P1;PMS_P2;Temp;Humidity;BMP_temperature;BMP_pressure;BME280_temperature;BME280_humidity;BME280_pressure;Samples;Min_cycle;Max_cycle;Signal;HPM_P1;HPM_P2
2022/12/20 00:00:52;;;;;;;185.70;89.20;;;;;;;-2.07;65.25;100053.80;222727;1262;139917;-66
2022/12/20 00:05:57;;;;;;;185.80;85.50;;;;;;;-2.02;65.45;100048.97;222678;1261;139251;-66
2022/12/20 00:11:03;;;;;;;193.70;86.60;;;;;;;-1.98;65.48;100041.68;222652;1264;140193;-66
2022/12/20 00:16:07;;;;;;;174.00;83.20;;;;;;;-1.93;65.55;100047.80;222681;1261;140581;-66
2022/12/20 00:21:14;;;;;;;173.10;80.70;;;;;;;-1.86;65.92;100052.35;222675;1261;139473;-66
2022/12/20 00:26:21;;;;;;;164.40;77.80;;;;;;;-1.79;66.19;100057.42;222703;1261;139403;-67
2022/12/20 00:31:26;;;;;;;173.10;80.70;;;;;;;-1.70;66.12;100051.71;222754;1261;139419;-66
2022/12/20 00:36:31;;;;;;;174.10;76.80;;;;;;;-1.61;66.14;100054.89;222670;1258;140117;-66
2022/12/20 00:41:36;;;;;;;157.10;74.20;;;;;;;-1.51;66.34;100052.84;222711;1261;139595;-65
2022/12/20 00:46:44;;;;;;;146.80;70.90;;;;;;;-1.41;66.46;100051.64;222665;1286;140092;-67
2022/12/20 00:51:53;;;;;;;135.40;63.50;;;;;;;-1.35;66.14;100058.27;222699;1260;139836;-66
2022/12/20 00:57:04;;;;;;;132.10;66.40;;;;;;;-1.25;65.93;100057.77;222628;1261;139938;-67
2022/12/20 01:02:08;;;;;;;140.80;63.60;;;;;;;-1.15;65.94;100058.66;222668;1261;139128;-67
2022/12/20 01:07:13;;;;;;;133.00;64.50;;;;;;;-1.07;66.10;100050.31;222806;1261;139866;-66
2022/12/20 01:12:18;;;;;;;133.20;65.10;;;;;;;-0.99;66.19;100043.17;222668;1261;139954;-66
2022/12/20 01:17:22;;;;;;;131.90;64.20;;;;;;;-0.93;66.02;100041.98;222648;1261;139458;-67
2022/12/20 01:22:40;;;;;;;128.40;63.40;;;;;;;-0.84;66.13;100039.88;222702;1258;139641;-66
2022/12/20 01:27:50;;;;;;;126.80;64.80;;;;;;;-0.78;66.44;100033.95;222664;1261;139730;-66
2022/12/20 01:32:53;;;;;;;135.40;65.10;;;;;;;-0.68;66.60;100027.33;222619;1258;139699;-67
2022/12/20 01:37:57;;;;;;;140.20;68.50;;;;;;;-0.54;67.00;100017.74;222608;1260;139752;-66
2022/12/20 01:43:01;;;;;;;144.50;71.20;;;;;;;-0.35;66.40;100006.02;222818;1260;139936;-65
2022/12/20 01:48:04;;;;;;;162.00;76.40;;;;;;;-0.26;66.30;100002.16;222619;1261;139085;-66
2022/12/20 01:53:10;;;;;;;155.00;75.80;;;;;;;-0.22;66.45;99997.27;222731;1260;139814;-68
2022/12/20 01:58:15;;;;;;;152.30;74.60;;;;;;;-0.16;66.43;99999.34;222714;1258;139208;-66
2022/12/20 02:03:22;;;;;;;;;;;;;;;-0.13;66.45;99993.58;222902;1277;139295;-65
2022/12/20 02:09:07;;;;;;;138.60;68.30;;;;;;;-0.09;66.65;99997.23;222722;1268;124940;-66
2022/12/20 02:15:45;;;;;;;140.80;66.90;;;;;;;-0.13;66.61;100001.79;222366;1268;139669;-67
2022/12/20 02:21:39;;;;;;;;;;;;;;;;;;;;;
2022/12/20 02:27:26;;;;;;;135.20;66.10;;;;;;;-0.11;67.13;99996.19;222197;1268;139481;-64
2022/12/20 02:33:56;;;;;;;135.70;66.30;;;;;;;-0.06;67.09;99982.20;221949;1268;139156;-65
2022/12/20 02:39:16;;;;;;;132.40;66.80;;;;;;;-0.02;67.29;99967.73;222251;1265;138873;-69
2022/12/20 02:45:27;;;;;;;130.80;63.80;;;;;;;0.03;67.33;99967.02;222801;1264;138442;-67
2022/12/20 02:59:54;;;;;;;127.70;63.30;;;;;;;0.11;67.53;99957.02;219865;1275;635188;-67
2022/12/20 03:05:13;;;;;;;135.50;64.60;;;;;;;0.08;67.72;99950.41;222754;1264;138799;-70
2022/12/20 03:10:20;;;;;;;123.10;62.20;;;;;;;0.08;67.73;99952.86;222553;1267;137550;-69
2022/12/20 03:15:25;;;;;;;126.30;62.20;;;;;;;0.10;68.00;99963.84;222705;1258;138167;-68
2022/12/20 03:21:37;;;;;;;126.00;64.20;;;;;;;0.13;68.41;99957.02;223156;1261;137587;-70
2022/12/20 03:27:04;;;;;;;124.20;63.10;;;;;;;0.24;68.30;99947.02;222785;1261;139374;-71
2022/12/20 03:32:07;;;;;;;129.50;62.90;;;;;;;0.41;67.82;99930.50;222823;1261;139427;-69
2022/12/20 03:37:13;;;;;;;117.80;62.00;;;;;;;0.55;67.05;99936.52;222745;1273;138733;-65
2022/12/20 03:42:16;;;;;;;143.60;71.20;;;;;;;0.73;67.62;99933.06;222762;1287;138944;-66
2022/12/20 03:47:32;;;;;;;260.30;147.70;;;;;;;0.80;66.75;99944.89;222707;1261;140596;-65
2022/12/20 03:52:37;;;;;;;126.20;65.60;;;;;;;0.87;67.34;99938.55;222750;1280;139098;-66
2022/12/20 03:57:41;;;;;;;118.80;61.70;;;;;;;0.94;66.95;99939.89;222662;1257;139746;-65
2022/12/20 04:02:58;;;;;;;129.40;63.90;;;;;;;0.89;66.70;99932.77;222783;1287;139469;-66
2022/12/20 04:08:03;;;;;;;121.90;61.50;;;;;;;0.87;66.71;99917.06;222844;1260;138972;-65
2022/12/20 04:13:07;;;;;;;115.30;58.60;;;;;;;0.86;66.64;99922.99;222689;1265;139381;-68
2022/12/20 04:18:11;;;;;;;109.90;59.30;;;;;;;0.89;67.02;99917.74;222694;1261;139919;-64
2022/12/20 04:23:14;;;;;;;106.40;55.20;;;;;;;0.85;66.76;99909.56;222735;1261;138914;-63
2022/12/20 04:28:19;;;;;;;112.30;54.90;;;;;;;0.74;66.60;99899.01;222713;1280;138709;-63
2022/12/20 04:33:24;;;;;;;99.40;51.80;;;;;;;0.67;66.57;99899.41;222668;1264;139667;-63
2022/12/20 04:38:35;;;;;;;99.70;52.00;;;;;;;0.65;66.21;99896.64;222642;1263;139204;-63
2022/12/20 04:43:39;;;;;;;182.40;93.00;;;;;;;0.67;66.35;99888.23;222839;1277;138575;-65
2022/12/20 04:48:43;;;;;;;117.90;57.40;;;;;;;0.76;65.90;99896.71;222743;1272;139043;-65
2022/12/20 04:54:04;;;;;;;103.70;52.80;;;;;;;0.74;65.03;99897.26;222644;1264;138827;-65
2022/12/20 04:59:18;;;;;;;103.10;50.00;;;;;;;0.65;64.76;99897.52;222694;1258;138451;-64
2022/12/20 05:04:23;;;;;;;98.00;50.50;;;;;;;0.58;64.94;99900.70;222717;1260;138770;-65
2022/12/20 05:09:27;;;;;;;90.50;47.20;;;;;;;0.55;65.32;99899.16;222705;1265;138645;-64
2022/12/20 05:14:30;;;;;;;95.70;48.50;;;;;;;0.56;65.37;99887.63;222847;1261;138668;-64
2022/12/20 05:19:35;;;;;;;100.60;52.30;;;;;;;0.57;65.28;99886.57;222854;1261;138444;-64
2022/12/20 05:30:10;;;;;;;93.00;45.60;;;;;;;0.55;65.74;99881.70;222708;1260;138747;-65
2022/12/20 05:35:13;;;;;;;87.00;44.40;;;;;;;0.57;65.87;99883.78;222612;1288;138305;-65
2022/12/20 05:40:18;;;;;;;83.10;42.80;;;;;;;0.66;66.00;99883.70;222688;1261;139981;-65
2022/12/20 05:45:22;;;;;;;79.50;42.50;;;;;;;0.81;65.91;99875.55;222734;1261;139117;-64
2022/12/20 05:50:33;;;;;;;87.90;45.40;;;;;;;0.90;65.65;99878.62;222796;1262;138694;-65
2022/12/20 05:55:57;;;;;;;98.10;48.60;;;;;;;0.93;65.32;99874.39;222881;1262;138330;-65
2022/12/20 06:01:09;;;;;;;92.00;46.20;;;;;;;0.88;65.06;99883.70;222658;1262;139271;-65
2022/12/20 06:06:13;;;;;;;87.30;44.90;;;;;;;0.84;65.15;99874.64;222708;1261;138917;-65
2022/12/20 06:11:20;;;;;;;87.10;45.20;;;;;;;0.89;65.24;99875.83;222735;1257;138078;-65
2022/12/20 06:16:37;;;;;;;77.50;41.50;;;;;;;0.89;65.14;99874.06;222802;1281;138681;-64
2022/12/20 06:21:42;;;;;;;84.20;43.70;;;;;;;0.84;65.22;99874.99;222750;1264;138586;-64
2022/12/20 06:26:48;;;;;;;77.90;42.40;;;;;;;0.84;65.35;99877.79;222742;1262;138319;-64
2022/12/20 06:31:53;;;;;;;79.50;41.60;;;;;;;0.86;65.36;99870.96;222847;1261;139010;-63
2022/12/20 06:36:56;;;;;;;80.10;41.60;;;;;;;0.93;65.47;99861.80;222801;1260;138435;-64
2022/12/20 06:42:03;;;;;;;79.10;41.70;;;;;;;0.98;65.33;99861.05;222694;1257;138467;-65
2022/12/20 06:47:09;;;;;;;77.90;42.20;;;;;;;0.99;65.30;99870.14;222747;1261;138948;-65
2022/12/20 06:52:13;;;;;;;85.20;43.90;;;;;;;0.93;65.35;99874.20;222617;1261;138448;-64
2022/12/20 06:57:20;;;;;;;86.00;44.30;;;;;;;0.87;65.44;99882.82;222609;1288;140260;-63
2022/12/20 07:02:24;;;;;;;86.10;46.20;;;;;;;0.80;65.42;99880.98;222803;1259;139327;-64
2022/12/20 07:07:45;;;;;;;102.90;50.60;;;;;;;0.72;65.40;99882.79;222510;1277;138309;-63
2022/12/20 07:13:16;;;;;;;106.40;52.60;;;;;;;0.60;65.36;99878.17;222724;1261;139747;-63
2022/12/20 07:18:21;;;;;;;88.60;46.90;;;;;;;0.53;65.77;99868.63;222252;1288;138972;-64
2022/12/20 07:23:40;;;;;;;101.20;51.50;;;;;;;0.57;65.93;99866.31;222856;1261;138554;-63
2022/12/20 07:29:02;;;;;;;93.60;49.00;;;;;;;0.53;65.83;99875.25;222535;1263;140255;-63
2022/12/20 07:34:21;;;;;;;98.60;50.90;;;;;;;0.56;66.21;99871.22;222647;1287;139192;-63
2022/12/20 07:46:08;;;;;;;99.50;51.70;;;;;;;0.64;65.96;99872.55;222577;1280;139385;-64
2022/12/20 07:51:33;;;;;;;97.80;51.50;;;;;;;0.64;66.02;99874.46;222853;1260;138571;-64
2022/12/20 07:57:43;;;;;;;92.00;50.40;;;;;;;0.71;66.11;99874.23;222686;1261;138436;-65
2022/12/20 08:04:34;;;;;;;105.00;56.10;;;;;;;0.78;65.96;99867.71;220232;1274;635861;-64
2022/12/20 08:09:40;;;;;;;103.00;55.50;;;;;;;0.82;66.06;99868.20;222631;1261;139563;-65
2022/12/20 08:14:44;;;;;;;103.60;55.00;;;;;;;0.93;66.25;99859.36;222916;1261;138027;-63
2022/12/20 08:19:50;;;;;;;97.30;52.00;;;;;;;1.13;66.25;99861.96;222740;1261;138552;-64
2022/12/20 08:24:53;;;;;;;105.50;57.30;;;;;;;1.38;65.89;99856.95;222781;1261;138808;-63
2022/12/20 08:29:57;;;;;;;99.00;51.00;;;;;;;1.60;65.64;99850.05;222778;1287;138785;-63
2022/12/20 08:35:00;;;;;;;103.50;53.80;;;;;;;1.82;65.57;99852.04;222767;1262;138994;-64
2022/12/20 08:40:04;;;;;;;106.90;55.50;;;;;;;1.95;65.44;99847.84;222748;1260;138545;-64
2022/12/20 08:45:08;;;;;;;95.40;51.40;;;;;;;2.01;65.13;99845.13;222808;1276;207477;-64
2022/12/20 08:50:12;;;;;;;81.80;43.20;;;;;;;2.07;65.12;99836.45;222928;1284;138453;-63
2022/12/20 08:55:18;;;;;;;72.20;41.30;;;;;;;2.23;64.96;99836.21;222746;1263;138126;-64
2022/12/20 09:00:28;;;;;;;71.90;39.80;;;;;;;2.43;64.67;99831.16;222753;1260;138664;-63
2022/12/20 09:05:31;;;;;;;72.60;37.90;;;;;;;2.66;64.22;99821.15;222773;1257;138142;-63
2022/12/20 09:10:35;;;;;;;75.10;38.30;;;;;;;2.80;63.50;99835.09;222796;1258;138695;-63
2022/12/20 09:15:43;;;;;;;70.70;37.80;;;;;;;2.86;63.49;99828.86;222771;1258;139359;-64
2022/12/20 09:20:47;;;;;;;73.60;40.10;;;;;;;2.95;63.47;99818.71;222891;1261;138300;-64
2022/12/20 09:25:50;;;;;;;68.60;39.30;;;;;;;2.99;63.48;99826.00;222789;1262;138249;-63
2022/12/20 09:30:59;;;;;;;69.40;38.10;;;;;;;3.08;63.34;99813.90;222850;1278;139258;-62
2022/12/20 09:36:04;;;;;;;63.80;35.30;;;;;;;3.27;63.00;99804.77;222763;1274;138901;-62
2022/12/20 09:41:27;;;;;;;57.10;32.50;;;;;;;3.42;62.64;99800.25;222766;1261;138062;-63
2022/12/20 09:46:32;;;;;;;60.80;34.50;;;;;;;3.64;62.33;99791.38;222748;1257;138295;-65
2022/12/20 09:51:54;;;;;;;61.80;33.90;;;;;;;3.85;62.47;99787.23;222748;1284;139475;-63
2022/12/20 09:57:00;;;;;;;51.50;28.80;;;;;;;4.06;61.67;99786.92;222825;1260;138416;-65
2022/12/20 10:02:10;;;;;;;44.80;26.60;;;;;;;4.19;61.57;99791.16;222882;1261;138007;-64
2022/12/20 10:08:00;;;;;;;47.10;27.00;;;;;;;4.38;61.45;99786.13;222735;1258;139316;-64
2022/12/20 10:13:19;;;;;;;49.80;26.70;;;;;;;4.50;60.54;99786.70;222753;1273;138781;-65
2022/12/20 10:18:56;;;;;;;46.00;27.00;;;;;;;4.54;59.76;99786.98;222747;1261;140071;-64
2022/12/20 10:24:17;;;;;;;49.20;28.90;;;;;;;4.61;59.86;99779.05;222731;1258;138418;-64
2022/12/20 10:29:20;;;;;;;48.60;28.80;;;;;;;4.83;59.54;99758.26;222714;1260;139528;-62
2022/12/20 10:34:23;;;;;;;49.90;28.40;;;;;;;5.11;58.65;99745.16;222591;1258;138494;-63
2022/12/20 10:39:41;;;;;;;52.50;28.40;;;;;;;5.24;58.07;99718.23;222787;1285;139234;-63
2022/12/20 10:44:44;;;;;;;45.90;25.50;;;;;;;5.24;57.91;99713.48;222874;1261;138371;-63
2022/12/20 10:49:47;;;;;;;44.60;26.00;;;;;;;5.27;57.75;99698.29;222819;1273;139455;-64
2022/12/20 10:54:50;;;;;;;47.10;27.10;;;;;;;5.30;57.97;99686.38;222809;1268;138361;-65
2022/12/20 11:00:01;;;;;;;47.20;27.30;;;;;;;5.40;58.16;99670.98;222793;1254;139397;-63
2022/12/20 11:05:10;;;;;;;43.20;25.80;;;;;;;5.49;56.83;99667.34;222564;1257;138684;-62
2022/12/20 11:10:32;;;;;;;44.30;25.90;;;;;;;5.50;55.94;99665.91;222782;1261;139527;-64
2022/12/20 11:15:47;;;;;;;43.80;24.30;;;;;;;5.42;55.87;99667.55;222815;1258;139594;-62
2022/12/20 11:21:30;;;;;;;42.90;24.10;;;;;;;5.33;56.36;99666.60;222868;1258;138390;-63
2022/12/20 11:27:02;;;;;;;41.90;24.00;;;;;;;5.30;56.37;99668.08;222711;1264;139806;-63
2022/12/20 11:32:48;;;;;;;45.20;24.90;;;;;;;5.29;56.42;99667.97;222788;1258;138696;-63
2022/12/20 11:38:29;;;;;;;42.10;23.30;;;;;;;5.18;56.36;99671.11;222693;1256;138536;-63
2022/12/20 11:44:01;;;;;;;44.50;25.20;;;;;;;5.10;56.55;99672.06;222739;1274;139916;-61
2022/12/20 11:49:57;;;;;;;45.00;24.90;;;;;;;5.02;57.07;99662.77;222760;1253;139018;-63
2022/12/20 11:55:14;;;;;;;41.30;24.00;;;;;;;4.90;57.54;99648.70;222663;1257;140191;-63
2022/12/20 12:00:29;;;;;;;44.00;25.90;;;;;;;4.84;57.78;99627.10;222771;1274;138794;-62
2022/12/20 12:05:48;;;;;;;60.50;32.50;;;;;;;4.80;59.65;99634.77;222709;1258;139045;-65
2022/12/20 12:11:25;;;;;;;49.70;27.80;;;;;;;4.90;58.97;99623.04;222564;1253;139158;-65
2022/12/20 12:17:03;;;;;;;57.00;29.70;;;;;;;4.88;58.33;99623.80;222525;1258;138791;-67
2022/12/20 12:22:22;;;;;;;51.50;28.90;;;;;;;4.86;58.93;99627.73;222707;1260;139284;-67
2022/12/20 12:27:27;;;;;;;54.40;29.20;;;;;;;4.82;58.90;99628.71;222834;1258;139333;-66
2022/12/20 12:32:47;;;;;;;79.30;41.10;;;;;;;4.84;59.84;99623.57;222772;1258;138603;-67
2022/12/20 12:38:02;;;;;;;52.20;29.90;;;;;;;4.93;59.28;99620.66;222673;1258;139173;-66
2022/12/20 12:43:41;;;;;;;52.90;30.20;;;;;;;4.96;59.13;99606.16;222803;1257;139432;-66
2022/12/20 12:49:03;;;;;;;49.30;27.20;;;;;;;4.96;59.12;99598.79;222696;1260;140064;-65
2022/12/20 12:54:29;;;;;;;49.70;27.50;;;;;;;4.87;59.17;99601.16;222746;1258;138982;-67
2022/12/20 12:59:33;;;;;;;46.90;27.30;;;;;;;4.79;59.06;99605.98;222643;1257;140024;-67
2022/12/20 13:05:20;;;;;;;50.40;28.70;;;;;;;4.78;59.33;99611.44;222632;1258;138926;-67
2022/12/20 13:10:43;;;;;;;48.30;27.80;;;;;;;4.74;59.71;99620.17;222570;1260;138231;-68
2022/12/20 13:16:04;;;;;;;50.80;26.70;;;;;;;4.70;59.86;99614.84;222647;1277;138847;-66
2022/12/20 13:21:33;;;;;;;50.50;29.00;;;;;;;4.64;60.14;99614.30;222757;1274;139149;-67
2022/12/20 13:26:52;;;;;;;53.70;30.30;;;;;;;4.65;60.40;99607.79;222685;1258;138438;-68
2022/12/20 13:31:59;;;;;;;49.70;28.40;;;;;;;4.62;60.61;99607.52;222561;1258;139806;-67
2022/12/20 13:37:55;;;;;;;53.70;29.50;;;;;;;4.56;60.63;99601.54;222631;1258;139624;-70
2022/12/20 13:43:25;;;;;;;49.70;28.90;;;;;;;4.49;60.94;99599.60;222745;1259;138966;-66
2022/12/20 13:48:52;;;;;;;58.80;27.70;;;;;;;4.47;60.82;99597.41;222711;1275;139074;-67
2022/12/20 13:54:23;;;;;;;52.30;29.10;;;;;;;4.42;61.34;99601.56;222697;1258;139062;-66
2022/12/20 14:00:04;;;;;;;51.00;30.00;;;;;;;4.41;61.20;99600.54;222659;1258;138878;-67
2022/12/20 14:05:30;;;;;;;53.60;30.70;;;;;;;4.44;61.24;99597.65;222642;1257;138067;-68
2022/12/20 14:10:52;;;;;;;56.40;29.10;;;;;;;4.41;61.38;99613.89;222685;1260;138996;-67
2022/12/20 14:16:14;;;;;;;58.00;31.60;;;;;;;4.39;61.49;99613.24;222672;1285;138692;-70
2022/12/20 14:21:36;;;;;;;;;;;;;;;;;;;;;
2022/12/20 14:26:44;;;;;;;58.10;30.50;;;;;;;4.44;61.56;99600.29;222764;1274;139685;-65
2022/12/20 14:32:19;;;;;;;58.40;30.00;;;;;;;4.43;61.63;99610.88;222664;1261;139072;-65
2022/12/20 14:37:36;;;;;;;50.80;28.80;;;;;;;4.41;61.43;99615.48;222633;1258;139712;-65
2022/12/20 14:42:48;;;;;;;51.70;29.70;;;;;;;4.37;61.39;99614.20;222655;1257;139011;-69
2022/12/20 14:48:17;;;;;;;55.20;30.60;;;;;;;4.35;61.60;99618.98;222821;1261;139546;-68
2022/12/20 14:53:27;;;;;;;57.30;32.40;;;;;;;4.38;61.56;99622.24;222631;1276;140491;-68
2022/12/20 14:58:35;;;;;;;61.70;31.40;;;;;;;4.32;62.12;99629.95;222741;1258;140365;-66
2022/12/20 15:03:57;;;;;;;54.70;30.90;;;;;;;4.30;61.84;99632.82;222973;1257;138924;-67
2022/12/20 15:09:04;;;;;;;49.50;28.50;;;;;;;4.34;61.62;99637.46;222697;1258;138792;-65
2022/12/20 15:14:35;;;;;;;54.30;30.40;;;;;;;4.32;61.95;99629.79;222690;1274;140879;-65
2022/12/20 15:19:47;;;;;;;49.00;27.20;;;;;;;4.31;62.05;99618.22;222733;1260;139252;-65
2022/12/20 15:24:56;;;;;;;56.70;30.70;;;;;;;4.19;62.18;99614.31;222675;1268;138289;-66
2022/12/20 15:30:57;;;;;;;53.20;31.40;;;;;;;4.11;62.65;99612.07;222604;1257;138990;-66
2022/12/20 15:36:02;;;;;;;57.20;30.00;;;;;;;4.07;62.60;99612.19;222668;1261;138483;-67
2022/12/20 15:41:33;;;;;;;57.50;30.90;;;;;;;4.01;62.72;99610.05;222651;1276;138395;-65
2022/12/20 15:47:01;;;;;;;53.70;30.70;;;;;;;4.03;62.94;99614.02;222575;1261;138988;-65
2022/12/20 15:52:19;;;;;;;58.10;32.10;;;;;;;4.00;63.06;99607.27;222852;1257;138511;-65
2022/12/20 15:57:37;;;;;;;140.60;82.80;;;;;;;3.98;63.27;99614.17;222678;1261;139468;-67
2022/12/20 16:02:49;;;;;;;65.30;35.20;;;;;;;4.07;64.23;99609.90;222696;1261;139238;-68
2022/12/20 16:08:07;;;;;;;61.10;32.20;;;;;;;4.03;63.75;99618.09;222591;1261;138539;-65
2022/12/20 16:13:43;;;;;;;61.60;33.70;;;;;;;3.97;63.98;99620.88;222761;1275;138819;-68
2022/12/20 16:18:48;;;;;;;64.30;34.00;;;;;;;3.96;63.90;99606.32;222763;1260;138178;-66
2022/12/20 16:24:08;;;;;;;;;;;;;;;;;;;;;
2022/12/20 16:29:23;;;;;;;65.60;36.50;;;;;;;3.89;63.78;99584.73;222613;1258;139033;-69
2022/12/20 16:34:49;;;;;;;66.90;35.40;;;;;;;3.88;63.76;99586.69;222699;1257;139332;-68
2022/12/20 16:40:21;;;;;;;67.80;37.20;;;;;;;3.94;64.01;99593.58;223088;1258;138795;-65
2022/12/20 16:45:31;;;;;;;71.70;38.00;;;;;;;4.01;64.17;99597.41;222681;1264;139180;-67
2022/12/20 16:50:46;;;;;;;75.00;37.20;;;;;;;4.01;64.15;99599.16;222842;1258;138509;-65
2022/12/20 16:56:04;;;;;;;70.20;36.50;;;;;;;4.00;63.58;99588.30;222730;1258;139231;-66
2022/12/20 17:01:17;;;;;;;65.30;37.10;;;;;;;4.01;63.97;99579.16;222671;1257;139893;-67
2022/12/20 17:06:21;;;;;;;72.50;36.90;;;;;;;3.99;63.88;99584.12;222623;1259;139117;-66
2022/12/20 17:12:13;;;;;;;70.20;38.30;;;;;;;3.96;63.54;99574.73;222589;1270;139126;-67
2022/12/20 17:17:38;;;;;;;67.20;37.10;;;;;;;3.90;63.79;99580.50;222704;1258;138702;-71
2022/12/20 17:23:15;;;;;;;80.20;43.80;;;;;;;3.88;64.99;99582.49;222744;1258;138507;-69
2022/12/20 17:28:20;;;;;;;69.10;37.50;;;;;;;3.96;64.14;99565.59;222696;1261;139062;-68
2022/12/20 17:33:25;;;;;;;75.80;38.90;;;;;;;3.87;63.82;99560.06;222668;1258;139069;-66
2022/12/20 17:38:32;;;;;;;72.30;37.80;;;;;;;3.79;63.95;99560.08;222532;1264;141220;-67
2022/12/20 17:43:46;;;;;;;69.10;37.80;;;;;;;3.72;64.30;99560.61;222684;1261;138698;-66
2022/12/20 17:49:02;;;;;;;69.70;36.70;;;;;;;3.68;64.18;99559.67;222516;1261;138291;-67
2022/12/20 17:54:38;;;;;;;70.50;38.60;;;;;;;3.64;64.42;99552.42;222625;1258;139497;-66
2022/12/20 17:59:44;;;;;;;71.70;39.10;;;;;;;3.63;64.61;99535.60;222715;1261;139957;-66
2022/12/20 18:04:48;;;;;;;73.20;39.50;;;;;;;3.65;64.41;99524.29;222788;1261;138918;-67
2022/12/20 18:09:53;;;;;;;71.20;38.40;;;;;;;3.64;64.57;99538.88;222797;1258;138961;-67
2022/12/20 18:15:06;;;;;;;72.90;37.40;;;;;;;3.62;64.83;99534.38;222568;1277;138906;-68
2022/12/20 18:20:16;;;;;;;72.60;37.90;;;;;;;3.63;64.68;99526.11;222659;1258;138964;-67
2022/12/20 18:25:39;;;;;;;66.80;36.40;;;;;;;3.64;64.63;99514.87;222645;1261;138454;-67
2022/12/20 18:30:50;;;;;;;207.60;106.20;;;;;;;3.61;64.72;99522.32;222623;1271;138496;-67
2022/12/20 18:36:04;;;;;;;66.80;39.10;;;;;;;3.71;65.69;99526.41;222719;1274;139099;-69
2022/12/20 18:41:26;;;;;;;68.40;38.60;;;;;;;3.98;64.56;99507.25;222602;1258;140040;-69
2022/12/20 18:47:17;;;;;;;75.70;40.50;;;;;;;3.98;64.07;99508.14;222582;1261;139580;-67
2022/12/20 18:52:30;;;;;;;72.20;39.40;;;;;;;4.04;64.16;99505.35;222681;1261;140843;-68
2022/12/20 18:58:16;;;;;;;71.50;36.90;;;;;;;4.05;63.97;99498.83;222765;1274;139550;-69
2022/12/20 19:10:33;;;;;;;68.30;36.10;;;;;;;3.95;63.62;99487.67;222750;1258;138551;-68
2022/12/20 19:16:30;;;;;;;69.90;36.80;;;;;;;3.89;63.69;99486.46;222635;1257;138665;-67
2022/12/20 19:21:40;;;;;;;66.20;35.70;;;;;;;3.86;63.89;99479.33;222680;1276;139334;-69
2022/12/20 19:26:47;;;;;;;60.90;34.10;;;;;;;3.85;63.57;99479.38;222793;1259;139361;-67
2022/12/20 19:31:55;;;;;;;71.90;38.20;;;;;;;3.86;63.65;99467.22;222455;1257;139563;-67
2022/12/20 19:37:00;;;;;;;63.40;36.00;;;;;;;3.90;63.86;99468.88;222714;1264;138618;-67
2022/12/20 19:42:10;;;;;;;61.00;35.20;;;;;;;3.83;63.89;99468.88;222726;1258;139365;-67
2022/12/20 19:47:32;;;;;;;64.00;35.60;;;;;;;3.79;63.76;99476.91;222679;1258;138474;-66
2022/12/20 19:53:03;;;;;;;;;;;;;;;;;;;;;
2022/12/20 19:58:10;;;;;;;63.90;36.30;;;;;;;3.80;63.70;99474.24;222843;1258;139195;-67
2022/12/20 20:03:31;;;;;;;;;;;;;;;;;;;;;
2022/12/20 20:09:27;;;;;;;60.50;35.60;;;;;;;3.85;63.59;99469.90;222467;1261;138685;-67
2022/12/20 20:15:20;;;;;;;63.70;36.00;;;;;;;3.81;63.55;99475.97;222270;1265;139944;-66
2022/12/20 20:20:33;;;;;;;60.20;35.20;;;;;;;3.72;63.54;99474.10;222615;1280;138675;-67
2022/12/20 20:26:16;;;;;;;62.60;35.40;;;;;;;3.64;63.99;99466.27;222760;1264;139932;-67
2022/12/20 20:31:25;;;;;;;58.80;35.20;;;;;;;3.62;63.86;99460.16;222627;1261;138745;-67
2022/12/20 20:36:32;;;;;;;65.70;35.30;;;;;;;3.64;63.39;99449.58;222655;1262;138683;-67
2022/12/20 20:42:03;;;;;;;58.70;32.50;;;;;;;3.69;63.42;99451.20;222590;1259;139222;-67
2022/12/20 20:47:13;;;;;;;57.10;33.70;;;;;;;3.68;63.27;99446.50;222776;1258;139208;-68
2022/12/20 20:52:53;;;;;;;61.40;34.70;;;;;;;3.61;63.42;99458.27;222600;1258;242721;-67
2022/12/20 20:58:03;;;;;;;96.80;57.10;;;;;;;3.66;64.88;99455.66;222741;1258;139385;-67
2022/12/20 21:03:38;;;;;;;64.40;36.80;;;;;;;3.79;64.44;99451.62;222695;1258;138886;-69
2022/12/20 21:08:47;;;;;;;69.70;37.90;;;;;;;3.65;63.81;99446.05;222616;1258;138842;-63
2022/12/20 21:14:05;;;;;;;65.80;38.00;;;;;;;3.51;63.82;99441.34;222689;1257;139244;-70
2022/12/20 21:19:18;;;;;;;93.80;55.30;;;;;;;3.43;64.13;99440.52;222601;1260;139624;-71
2022/12/20 21:24:40;;;;;;;65.10;37.40;;;;;;;3.43;64.26;99438.92;222649;1258;138503;-71
2022/12/20 21:30:03;;;;;;;72.90;39.50;;;;;;;3.37;64.13;99428.90;222604;1258;140026;-70
2022/12/20 21:35:42;;;;;;;66.60;39.60;;;;;;;3.38;64.26;99437.48;222757;1266;139234;-69
2022/12/20 21:47:24;;;;;;;78.00;43.00;;;;;;;3.31;64.12;99415.23;222656;1260;138808;-68
2022/12/20 21:52:38;;;;;;;72.90;41.90;;;;;;;3.23;64.24;99399.83;222339;1264;139328;-66
2022/12/20 21:57:46;;;;;;;76.30;43.50;;;;;;;3.13;64.51;99387.98;222610;1264;138728;-67
2022/12/20 22:04:46;;;;;;;79.10;44.90;;;;;;;3.06;64.64;99383.95;222643;1265;138684;-69
2022/12/20 22:15:37;;;;;;;73.80;42.80;;;;;;;2.90;65.06;99353.71;221654;1260;139697;-68
2022/12/20 22:22:19;;;;;;;91.80;49.80;;;;;;;2.81;65.19;99355.69;222135;1260;138490;-68
2022/12/20 22:28:12;;;;;;;76.80;41.00;;;;;;;2.70;65.53;99357.05;221086;1271;139230;-65
2022/12/20 22:33:44;;;;;;;83.80;44.20;;;;;;;2.64;65.54;99350.70;222141;1265;139063;-65
2022/12/20 22:39:06;;;;;;;74.60;40.60;;;;;;;2.59;65.74;99352.73;222673;1264;141074;-65
2022/12/20 22:45:23;;;;;;;91.00;46.70;;;;;;;2.59;65.81;99357.14;222298;1258;138604;-65
2022/12/20 22:51:08;;;;;;;78.60;43.30;;;;;;;2.59;65.76;99330.14;222634;1280;139387;-65
2022/12/20 22:57:15;;;;;;;85.30;46.00;;;;;;;2.51;65.59;99338.58;222931;1261;138557;-66
2022/12/20 23:02:54;;;;;;;89.40;47.90;;;;;;;2.49;65.96;99329.86;222683;1284;139077;-67
2022/12/20 23:08:00;;;;;;;87.10;47.80;;;;;;;2.57;65.56;99313.23;222709;1261;139258;-66
2022/12/20 23:26:50;;;;;;;91.90;49.90;;;;;;;2.71;65.17;99299.73;222713;1271;139035;-65
2022/12/20 23:32:13;;;;;;;85.00;46.90;;;;;;;2.61;65.48;99291.56;222287;1261;139274;-68
2022/12/20 23:38:01;;;;;;;93.50;47.70;;;;;;;2.51;65.41;99284.48;222680;1264;139067;-69
2022/12/20 23:44:06;;;;;;;;;;;;;;;;;;;;;
2022/12/20 23:58:33;;;;;;;84.10;46.00;;;;;;;2.27;65.93;99274.73;222025;1271;139388;-65
